sensor_id;sensor_type;location;lat;lon;timestamp;P1;durP1;ratioP1;P2;durP2;ratioP2
72060;SDS011;59925;52.136;5.420;2022-12-13T00:00:55;21.93;;;10.37;;
72060;SDS011;59925;52.136;5.420;2022-12-13T00:03:22;21.08;;;9.85;;
72060;SDS011;59925;52.136;5.420;2022-12-13T00:05:48;21.73;;;9.25;;
72060;SDS011;59925;52.136;5.420;2022-12-13T00:08:14;23.98;;;9.95;;
72060;SDS011;59925;52.136;5.420;2022-12-13T00:10:42;19.58;;;9.10;;
72060;SDS011;59925;52.136;5.420;2022-12-13T00:13:08;22.93;;;10.13;;
72060;SDS011;59925;52.136;5.420;2022-12-13T00:15:34;25.30;;;9.55;;
72060;SDS011;59925;52.136;5.420;2022-12-13T00:18:01;23.73;;;9.77;;
72060;SDS011;59925;52.136;5.420;2022-12-13T00:20:27;21.33;;;9.38;;
72060;SDS011;59925;52.136;5.420;2022-12-13T00:22:54;23.33;;;10.77;;
72060;SDS011;59925;52.136;5.420;2022-12-13T00:25:20;22.43;;;9.03;;
72060;SDS011;59925;52.136;5.420;2022-12-13T00:27:47;21.42;;;10.27;;
72060;SDS011;59925;52.136;5.420;2022-12-13T00:30:13;20.27;;;9.38;;
72060;SDS011;59925;52.136;5.420;2022-12-13T00:32:40;21.05;;;9.02;;
72060;SDS011;59925;52.136;5.420;2022-12-13T00:35:06;26.17;;;9.88;;
72060;SDS011;59925;52.136;5.420;2022-12-13T00:37:33;18.33;;;9.60;;
72060;SDS011;59925;52.136;5.420;2022-12-13T00:39:59;23.70;;;10.07;;
72060;SDS011;59925;52.136;5.420;2022-12-13T00:42:26;24.02;;;10.07;;
72060;SDS011;59925;52.136;5.420;2022-12-13T00:44:52;25.65;;;10.68;;
72060;SDS011;59925;52.136;5.420;2022-12-13T00:47:19;20.80;;;9.50;;
72060;SDS011;59925;52.136;5.420;2022-12-13T00:49:47;18.37;;;8.73;;
72060;SDS011;59925;52.136;5.420;2022-12-13T00:52:13;17.90;;;8.90;;
72060;SDS011;59925;52.136;5.420;2022-12-13T00:54:40;18.25;;;9.00;;
72060;SDS011;59925;52.136;5.420;2022-12-13T00:57:06;21.95;;;10.10;;
72060;SDS011;59925;52.136;5.420;2022-12-13T00:59:33;23.27;;;9.48;;
72060;SDS011;59925;52.136;5.420;2022-12-13T01:01:59;19.07;;;9.10;;
72060;SDS011;59925;52.136;5.420;2022-12-13T01:04:26;24.08;;;9.63;;
72060;SDS011;59925;52.136;5.420;2022-12-13T01:06:52;19.35;;;9.73;;
72060;SDS011;59925;52.136;5.420;2022-12-13T01:09:21;21.65;;;10.25;;
72060;SDS011;59925;52.136;5.420;2022-12-13T01:11:55;20.73;;;9.18;;
72060;SDS011;59925;52.136;5.420;2022-12-13T01:14:35;24.87;;;9.40;;
72060;SDS011;59925;52.136;5.420;2022-12-13T01:17:02;21.58;;;9.63;;
72060;SDS011;59925;52.136;5.420;2022-12-13T01:19:28;26.38;;;9.90;;
72060;SDS011;59925;52.136;5.420;2022-12-13T01:21:55;23.25;;;10.35;;
72060;SDS011;59925;52.136;5.420;2022-12-13T01:24:25;21.42;;;8.80;;
72060;SDS011;59925;52.136;5.420;2022-12-13T01:26:52;23.40;;;9.13;;
72060;SDS011;59925;52.136;5.420;2022-12-13T01:29:22;17.45;;;9.38;;
72060;SDS011;59925;52.136;5.420;2022-12-13T01:31:51;19.48;;;9.00;;
72060;SDS011;59925;52.136;5.420;2022-12-13T01:34:19;27.55;;;9.48;;
72060;SDS011;59925;52.136;5.420;2022-12-13T01:36:52;21.63;;;9.85;;
72060;SDS011;59925;52.136;5.420;2022-12-13T01:39:24;21.60;;;10.20;;
72060;SDS011;59925;52.136;5.420;2022-12-13T01:41:52;21.55;;;9.35;;
72060;SDS011;59925;52.136;5.420;2022-12-13T01:47:22;22.13;;;10.07;;
72060;SDS011;59925;52.136;5.420;2022-12-13T01:49:53;22.15;;;9.63;;
72060;SDS011;59925;52.136;5.420;2022-12-13T01:52:24;19.20;;;9.63;;
72060;SDS011;59925;52.136;5.420;2022-12-13T01:54:52;20.75;;;8.60;;
72060;SDS011;59925;52.136;5.420;2022-12-13T01:57:28;17.90;;;8.27;;
72060;SDS011;59925;52.136;5.420;2022-12-13T01:59:57;20.77;;;9.40;;
72060;SDS011;59925;52.136;5.420;2022-12-13T02:02:24;19.83;;;8.70;;
72060;SDS011;59925;52.136;5.420;2022-12-13T02:04:53;16.07;;;7.87;;
72060;SDS011;59925;52.136;5.420;2022-12-13T02:07:30;17.50;;;7.90;;
72060;SDS011;59925;52.136;5.420;2022-12-13T02:09:59;17.10;;;7.55;;
72060;SDS011;59925;52.136;5.420;2022-12-13T02:12:29;24.38;;;8.70;;
72060;SDS011;59925;52.136;5.420;2022-12-13T02:15:01;16.52;;;8.68;;
72060;SDS011;59925;52.136;5.420;2022-12-13T02:20:27;18.98;;;8.15;;
72060;SDS011;59925;52.136;5.420;2022-12-13T02:35:10;13.80;;;7.35;;
72060;SDS011;59925;52.136;5.420;2022-12-13T02:40:29;19.60;;;9.10;;
72060;SDS011;59925;52.136;5.420;2022-12-13T02:45:43;25.70;;;8.73;;
72060;SDS011;59925;52.136;5.420;2022-12-13T02:48:13;16.42;;;8.23;;
72060;SDS011;59925;52.136;5.420;2022-12-13T02:50:44;17.35;;;8.18;;
72060;SDS011;59925;52.136;5.420;2022-12-13T02:53:12;20.30;;;8.48;;
72060;SDS011;59925;52.136;5.420;2022-12-13T02:55:41;21.52;;;8.82;;
72060;SDS011;59925;52.136;5.420;2022-12-13T02:58:10;19.07;;;8.13;;
72060;SDS011;59925;52.136;5.420;2022-12-13T03:00:49;19.73;;;7.95;;
72060;SDS011;59925;52.136;5.420;2022-12-13T03:17:49;16.98;;;7.97;;
72060;SDS011;59925;52.136;5.420;2022-12-13T03:20:22;16.33;;;7.72;;
72060;SDS011;59925;52.136;5.420;2022-12-13T03:22:52;21.13;;;8.85;;
72060;SDS011;59925;52.136;5.420;2022-12-13T03:25:20;16.80;;;8.60;;
72060;SDS011;59925;52.136;5.420;2022-12-13T03:27:58;21.05;;;8.00;;
72060;SDS011;59925;52.136;5.420;2022-12-13T03:30:27;19.40;;;8.13;;
72060;SDS011;59925;52.136;5.420;2022-12-13T03:32:54;18.17;;;7.97;;
72060;SDS011;59925;52.136;5.420;2022-12-13T03:35:20;16.88;;;8.15;;
72060;SDS011;59925;52.136;5.420;2022-12-13T03:37:48;16.17;;;8.27;;
72060;SDS011;59925;52.136;5.420;2022-12-13T03:40:15;16.15;;;8.23;;
72060;SDS011;59925;52.136;5.420;2022-12-13T03:42:42;16.05;;;8.05;;
72060;SDS011;59925;52.136;5.420;2022-12-13T03:45:09;21.02;;;8.20;;
72060;SDS011;59925;52.136;5.420;2022-12-13T03:47:35;20.98;;;9.43;;
72060;SDS011;59925;52.136;5.420;2022-12-13T03:50:02;18.73;;;8.10;;
72060;SDS011;59925;52.136;5.420;2022-12-13T03:52:48;19.83;;;7.45;;
72060;SDS011;59925;52.136;5.420;2022-12-13T03:55:17;19.35;;;8.13;;
72060;SDS011;59925;52.136;5.420;2022-12-13T03:57:44;18.63;;;8.02;;
72060;SDS011;59925;52.136;5.420;2022-12-13T04:00:10;18.08;;;8.20;;
72060;SDS011;59925;52.136;5.420;2022-12-13T04:02:38;20.47;;;7.93;;
72060;SDS011;59925;52.136;5.420;2022-12-13T04:05:04;20.08;;;7.90;;
72060;SDS011;59925;52.136;5.420;2022-12-13T04:07:31;17.27;;;7.35;;
72060;SDS011;59925;52.136;5.420;2022-12-13T04:09:59;22.98;;;9.18;;
72060;SDS011;59925;52.136;5.420;2022-12-13T04:12:26;17.45;;;8.43;;
72060;SDS011;59925;52.136;5.420;2022-12-13T04:15:14;17.73;;;8.60;;
72060;SDS011;59925;52.136;5.420;2022-12-13T04:17:41;17.52;;;9.15;;
72060;SDS011;59925;52.136;5.420;2022-12-13T04:20:07;18.08;;;8.75;;
72060;SDS011;59925;52.136;5.420;2022-12-13T04:22:34;15.57;;;7.97;;
72060;SDS011;59925;52.136;5.420;2022-12-13T04:25:01;17.30;;;8.90;;
72060;SDS011;59925;52.136;5.420;2022-12-13T04:27:28;14.77;;;7.50;;
72060;SDS011;59925;52.136;5.420;2022-12-13T04:29:55;19.75;;;7.65;;
72060;SDS011;59925;52.136;5.420;2022-12-13T04:32:22;15.90;;;7.50;;
72060;SDS011;59925;52.136;5.420;2022-12-13T04:34:52;18.67;;;8.18;;
72060;SDS011;59925;52.136;5.420;2022-12-13T04:37:37;16.65;;;7.43;;
72060;SDS011;59925;52.136;5.420;2022-12-13T04:40:08;15.27;;;7.27;;
72060;SDS011;59925;52.136;5.420;2022-12-13T04:42:36;21.40;;;8.52;;
72060;SDS011;59925;52.136;5.420;2022-12-13T04:45:03;19.20;;;8.18;;
72060;SDS011;59925;52.136;5.420;2022-12-13T04:47:30;23.25;;;8.32;;
72060;SDS011;59925;52.136;5.420;2022-12-13T04:49:56;14.88;;;6.80;;
72060;SDS011;59925;52.136;5.420;2022-12-13T04:52:22;21.13;;;7.47;;
72060;SDS011;59925;52.136;5.420;2022-12-13T04:54:49;17.95;;;7.72;;
72060;SDS011;59925;52.136;5.420;2022-12-13T04:57:21;19.02;;;7.88;;
72060;SDS011;59925;52.136;5.420;2022-12-13T04:59:48;17.92;;;8.23;;
72060;SDS011;59925;52.136;5.420;2022-12-13T05:02:15;20.35;;;7.38;;
72060;SDS011;59925;52.136;5.420;2022-12-13T05:04:49;18.23;;;8.00;;
72060;SDS011;59925;52.136;5.420;2022-12-13T05:07:19;17.23;;;6.72;;
72060;SDS011;59925;52.136;5.420;2022-12-13T05:09:46;18.58;;;7.40;;
72060;SDS011;59925;52.136;5.420;2022-12-13T05:12:12;18.60;;;7.90;;
72060;SDS011;59925;52.136;5.420;2022-12-13T05:14:48;17.48;;;7.78;;
72060;SDS011;59925;52.136;5.420;2022-12-13T05:17:15;17.83;;;8.20;;
72060;SDS011;59925;52.136;5.420;2022-12-13T05:19:42;16.60;;;7.65;;
72060;SDS011;59925;52.136;5.420;2022-12-13T05:22:09;16.25;;;8.18;;
72060;SDS011;59925;52.136;5.420;2022-12-13T05:24:46;18.52;;;7.43;;
72060;SDS011;59925;52.136;5.420;2022-12-13T05:27:12;16.38;;;7.30;;
72060;SDS011;59925;52.136;5.420;2022-12-13T05:29:52;16.90;;;7.40;;
72060;SDS011;59925;52.136;5.420;2022-12-13T05:32:33;15.30;;;7.22;;
72060;SDS011;59925;52.136;5.420;2022-12-13T05:35:13;20.55;;;7.78;;
72060;SDS011;59925;52.136;5.420;2022-12-13T05:37:51;18.30;;;8.43;;
72060;SDS011;59925;52.136;5.420;2022-12-13T05:40:19;19.75;;;7.28;;
72060;SDS011;59925;52.136;5.420;2022-12-13T05:42:47;14.50;;;7.43;;
72060;SDS011;59925;52.136;5.420;2022-12-13T05:45:13;17.48;;;7.60;;
72060;SDS011;59925;52.136;5.420;2022-12-13T05:47:42;17.27;;;8.23;;
72060;SDS011;59925;52.136;5.420;2022-12-13T05:50:09;21.02;;;7.78;;
72060;SDS011;59925;52.136;5.420;2022-12-13T05:52:36;17.48;;;7.93;;
72060;SDS011;59925;52.136;5.420;2022-12-13T05:55:03;11.77;;;6.30;;
72060;SDS011;59925;52.136;5.420;2022-12-13T05:57:30;15.35;;;6.97;;
72060;SDS011;59925;52.136;5.420;2022-12-13T05:59:59;16.00;;;8.77;;
72060;SDS011;59925;52.136;5.420;2022-12-13T06:02:26;16.40;;;7.68;;
72060;SDS011;59925;52.136;5.420;2022-12-13T06:04:53;21.60;;;8.45;;
72060;SDS011;59925;52.136;5.420;2022-12-13T06:07:19;17.03;;;6.67;;
72060;SDS011;59925;52.136;5.420;2022-12-13T06:09:46;17.75;;;6.85;;
72060;SDS011;59925;52.136;5.420;2022-12-13T06:12:12;16.33;;;7.75;;
72060;SDS011;59925;52.136;5.420;2022-12-13T06:14:57;15.80;;;7.05;;
72060;SDS011;59925;52.136;5.420;2022-12-13T06:17:44;17.00;;;6.72;;
72060;SDS011;59925;52.136;5.420;2022-12-13T06:20:10;15.87;;;7.03;;
72060;SDS011;59925;52.136;5.420;2022-12-13T06:22:49;13.18;;;7.47;;
72060;SDS011;59925;52.136;5.420;2022-12-13T06:25:16;17.73;;;7.68;;
72060;SDS011;59925;52.136;5.420;2022-12-13T06:27:56;14.00;;;6.45;;
72060;SDS011;59925;52.136;5.420;2022-12-13T06:30:26;14.07;;;6.53;;
72060;SDS011;59925;52.136;5.420;2022-12-13T06:32:52;17.43;;;7.23;;
72060;SDS011;59925;52.136;5.420;2022-12-13T06:35:19;17.75;;;7.22;;
72060;SDS011;59925;52.136;5.420;2022-12-13T06:37:55;13.55;;;7.47;;
72060;SDS011;59925;52.136;5.420;2022-12-13T06:40:27;17.52;;;7.80;;
72060;SDS011;59925;52.136;5.420;2022-12-13T06:42:55;14.85;;;6.68;;
72060;SDS011;59925;52.136;5.420;2022-12-13T06:45:21;19.10;;;7.97;;
72060;SDS011;59925;52.136;5.420;2022-12-13T06:47:48;22.60;;;7.28;;
72060;SDS011;59925;52.136;5.420;2022-12-13T06:50:14;15.23;;;7.50;;
72060;SDS011;59925;52.136;5.420;2022-12-13T06:52:41;15.82;;;7.95;;
72060;SDS011;59925;52.136;5.420;2022-12-13T06:55:07;14.98;;;8.27;;
72060;SDS011;59925;52.136;5.420;2022-12-13T06:57:34;21.37;;;8.53;;
72060;SDS011;59925;52.136;5.420;2022-12-13T07:00:01;18.80;;;7.57;;
72060;SDS011;59925;52.136;5.420;2022-12-13T07:02:30;19.25;;;7.28;;
72060;SDS011;59925;52.136;5.420;2022-12-13T07:04:56;14.43;;;7.72;;
72060;SDS011;59925;52.136;5.420;2022-12-13T07:07:23;16.33;;;8.73;;
72060;SDS011;59925;52.136;5.420;2022-12-13T07:09:51;14.63;;;6.87;;
72060;SDS011;59925;52.136;5.420;2022-12-13T07:12:18;16.30;;;7.45;;
72060;SDS011;59925;52.136;5.420;2022-12-13T07:14:46;18.45;;;8.43;;
72060;SDS011;59925;52.136;5.420;2022-12-13T07:17:13;20.48;;;7.88;;
72060;SDS011;59925;52.136;5.420;2022-12-13T07:19:59;19.65;;;8.48;;
72060;SDS011;59925;52.136;5.420;2022-12-13T07:22:26;16.03;;;7.97;;
72060;SDS011;59925;52.136;5.420;2022-12-13T07:24:53;19.38;;;8.05;;
72060;SDS011;59925;52.136;5.420;2022-12-13T07:27:19;18.20;;;8.45;;
72060;SDS011;59925;52.136;5.420;2022-12-13T07:29:46;17.98;;;7.30;;
72060;SDS011;59925;52.136;5.420;2022-12-13T07:32:12;15.73;;;8.68;;
72060;SDS011;59925;52.136;5.420;2022-12-13T07:34:38;17.73;;;8.53;;
72060;SDS011;59925;52.136;5.420;2022-12-13T07:37:05;16.65;;;7.68;;
72060;SDS011;59925;52.136;5.420;2022-12-13T07:39:31;15.05;;;6.88;;
72060;SDS011;59925;52.136;5.420;2022-12-13T07:41:58;17.83;;;7.78;;
72060;SDS011;59925;52.136;5.420;2022-12-13T07:44:24;20.85;;;7.88;;
72060;SDS011;59925;52.136;5.420;2022-12-13T07:46:51;17.33;;;7.17;;
72060;SDS011;59925;52.136;5.420;2022-12-13T07:49:17;17.40;;;8.50;;
72060;SDS011;59925;52.136;5.420;2022-12-13T07:51:44;16.92;;;7.88;;
72060;SDS011;59925;52.136;5.420;2022-12-13T07:54:11;23.90;;;9.43;;
72060;SDS011;59925;52.136;5.420;2022-12-13T07:56:37;28.80;;;10.35;;
72060;SDS011;59925;52.136;5.420;2022-12-13T07:59:04;50.30;;;12.50;;
72060;SDS011;59925;52.136;5.420;2022-12-13T08:01:31;76.05;;;16.08;;
72060;SDS011;59925;52.136;5.420;2022-12-13T08:04:00;94.95;;;18.50;;
72060;SDS011;59925;52.136;5.420;2022-12-13T08:06:33;56.05;;;13.80;;
72060;SDS011;59925;52.136;5.420;2022-12-13T08:09:01;28.55;;;10.57;;
72060;SDS011;59925;52.136;5.420;2022-12-13T08:11:28;32.90;;;10.37;;
72060;SDS011;59925;52.136;5.420;2022-12-13T08:13:55;20.60;;;8.90;;
72060;SDS011;59925;52.136;5.420;2022-12-13T08:16:21;20.65;;;8.57;;
72060;SDS011;59925;52.136;5.420;2022-12-13T08:18:53;19.98;;;8.90;;
72060;SDS011;59925;52.136;5.420;2022-12-13T08:21:35;29.60;;;9.32;;
72060;SDS011;59925;52.136;5.420;2022-12-13T08:24:26;28.77;;;8.57;;
72060;SDS011;59925;52.136;5.420;2022-12-13T08:26:56;26.20;;;9.30;;
72060;SDS011;59925;52.136;5.420;2022-12-13T08:29:26;15.65;;;8.30;;
72060;SDS011;59925;52.136;5.420;2022-12-13T08:32:00;18.30;;;8.32;;
72060;SDS011;59925;52.136;5.420;2022-12-13T08:34:27;15.18;;;7.28;;
72060;SDS011;59925;52.136;5.420;2022-12-13T08:36:54;23.97;;;10.00;;
72060;SDS011;59925;52.136;5.420;2022-12-13T08:39:29;21.25;;;8.45;;
72060;SDS011;59925;52.136;5.420;2022-12-13T08:42:02;26.77;;;9.63;;
72060;SDS011;59925;52.136;5.420;2022-12-13T08:44:43;18.02;;;8.45;;
72060;SDS011;59925;52.136;5.420;2022-12-13T08:47:11;24.40;;;10.18;;
72060;SDS011;59925;52.136;5.420;2022-12-13T08:49:50;24.07;;;9.60;;
72060;SDS011;59925;52.136;5.420;2022-12-13T08:52:21;25.27;;;11.05;;
72060;SDS011;59925;52.136;5.420;2022-12-13T08:54:49;25.15;;;8.90;;
72060;SDS011;59925;52.136;5.420;2022-12-13T08:57:16;25.40;;;10.00;;
72060;SDS011;59925;52.136;5.420;2022-12-13T08:59:42;25.08;;;10.10;;
72060;SDS011;59925;52.136;5.420;2022-12-13T09:02:12;26.87;;;9.17;;
72060;SDS011;59925;52.136;5.420;2022-12-13T09:04:40;28.60;;;10.88;;
72060;SDS011;59925;52.136;5.420;2022-12-13T09:07:09;26.23;;;10.50;;
72060;SDS011;59925;52.136;5.420;2022-12-13T09:09:36;21.95;;;9.63;;
72060;SDS011;59925;52.136;5.420;2022-12-13T09:12:03;28.65;;;9.48;;
72060;SDS011;59925;52.136;5.420;2022-12-13T09:14:50;21.70;;;9.30;;
72060;SDS011;59925;52.136;5.420;2022-12-13T09:17:16;22.92;;;10.90;;
72060;SDS011;59925;52.136;5.420;2022-12-13T09:19:50;21.25;;;11.00;;
72060;SDS011;59925;52.136;5.420;2022-12-13T09:22:24;20.63;;;9.95;;
72060;SDS011;59925;52.136;5.420;2022-12-13T09:24:59;25.05;;;9.30;;
72060;SDS011;59925;52.136;5.420;2022-12-13T09:27:28;21.13;;;10.13;;
72060;SDS011;59925;52.136;5.420;2022-12-13T09:29:55;28.10;;;9.98;;
72060;SDS011;59925;52.136;5.420;2022-12-13T09:32:23;27.52;;;11.10;;
72060;SDS011;59925;52.136;5.420;2022-12-13T09:34:50;23.17;;;10.48;;
72060;SDS011;59925;52.136;5.420;2022-12-13T09:37:17;23.75;;;10.45;;
72060;SDS011;59925;52.136;5.420;2022-12-13T09:39:48;27.20;;;11.33;;
72060;SDS011;59925;52.136;5.420;2022-12-13T09:42:21;23.90;;;9.93;;
72060;SDS011;59925;52.136;5.420;2022-12-13T09:45:03;26.48;;;11.57;;
72060;SDS011;59925;52.136;5.420;2022-12-13T09:47:47;27.67;;;11.35;;
72060;SDS011;59925;52.136;5.420;2022-12-13T09:50:31;36.28;;;13.98;;
72060;SDS011;59925;52.136;5.420;2022-12-13T09:53:04;26.03;;;12.60;;
72060;SDS011;59925;52.136;5.420;2022-12-13T09:55:52;24.90;;;11.07;;
72060;SDS011;59925;52.136;5.420;2022-12-13T09:58:36;31.50;;;13.50;;
72060;SDS011;59925;52.136;5.420;2022-12-13T10:01:03;30.13;;;13.05;;
72060;SDS011;59925;52.136;5.420;2022-12-13T10:03:30;30.65;;;13.52;;
72060;SDS011;59925;52.136;5.420;2022-12-13T10:06:00;28.77;;;13.37;;
72060;SDS011;59925;52.136;5.420;2022-12-13T10:08:42;30.08;;;14.07;;
72060;SDS011;59925;52.136;5.420;2022-12-13T10:11:12;33.53;;;14.52;;
72060;SDS011;59925;52.136;5.420;2022-12-13T10:19:20;29.17;;;14.07;;
72060;SDS011;59925;52.136;5.420;2022-12-13T10:21:54;32.75;;;13.65;;
72060;SDS011;59925;52.136;5.420;2022-12-13T10:24:28;32.42;;;15.32;;
72060;SDS011;59925;52.136;5.420;2022-12-13T10:27:12;33.30;;;14.90;;
72060;SDS011;59925;52.136;5.420;2022-12-13T10:30:01;38.97;;;15.77;;
72060;SDS011;59925;52.136;5.420;2022-12-13T10:38:00;29.83;;;13.52;;
72060;SDS011;59925;52.136;5.420;2022-12-13T10:40:45;32.33;;;14.23;;
72060;SDS011;59925;52.136;5.420;2022-12-13T10:43:15;30.92;;;13.55;;
72060;SDS011;59925;52.136;5.420;2022-12-13T10:45:56;34.10;;;13.27;;
72060;SDS011;59925;52.136;5.420;2022-12-13T10:51:05;27.52;;;13.63;;
72060;SDS011;59925;52.136;5.420;2022-12-13T10:53:36;28.88;;;13.68;;
72060;SDS011;59925;52.136;5.420;2022-12-13T10:56:17;26.50;;;13.13;;
72060;SDS011;59925;52.136;5.420;2022-12-13T10:58:50;27.33;;;13.83;;
72060;SDS011;59925;52.136;5.420;2022-12-13T11:01:42;28.13;;;13.15;;
72060;SDS011;59925;52.136;5.420;2022-12-13T11:04:22;28.48;;;13.52;;
72060;SDS011;59925;52.136;5.420;2022-12-13T11:06:54;33.40;;;13.73;;
72060;SDS011;59925;52.136;5.420;2022-12-13T11:11:51;36.73;;;15.23;;
72060;SDS011;59925;52.136;5.420;2022-12-13T11:14:25;29.48;;;14.13;;
72060;SDS011;59925;52.136;5.420;2022-12-13T11:16:58;28.70;;;14.05;;
72060;SDS011;59925;52.136;5.420;2022-12-13T11:19:36;32.25;;;14.13;;
72060;SDS011;59925;52.136;5.420;2022-12-13T11:22:21;25.88;;;12.95;;
72060;SDS011;59925;52.136;5.420;2022-12-13T11:25:05;30.90;;;13.63;;
72060;SDS011;59925;52.136;5.420;2022-12-13T11:30:36;28.30;;;13.82;;
72060;SDS011;59925;52.136;5.420;2022-12-13T11:33:25;28.88;;;12.77;;
72060;SDS011;59925;52.136;5.420;2022-12-13T11:38:44;29.73;;;12.23;;
72060;SDS011;59925;52.136;5.420;2022-12-13T11:41:16;30.27;;;12.95;;
72060;SDS011;59925;52.136;5.420;2022-12-13T11:43:59;28.63;;;12.48;;
72060;SDS011;59925;52.136;5.420;2022-12-13T11:49:07;31.25;;;13.55;;
72060;SDS011;59925;52.136;5.420;2022-12-13T11:51:40;27.30;;;12.20;;
72060;SDS011;59925;52.136;5.420;2022-12-13T11:54:33;28.63;;;12.90;;
72060;SDS011;59925;52.136;5.420;2022-12-13T11:57:14;26.98;;;13.27;;
72060;SDS011;59925;52.136;5.420;2022-12-13T11:59:49;32.60;;;12.15;;
72060;SDS011;59925;52.136;5.420;2022-12-13T12:02:34;27.85;;;12.90;;
72060;SDS011;59925;52.136;5.420;2022-12-13T12:05:13;24.53;;;12.30;;
72060;SDS011;59925;52.136;5.420;2022-12-13T12:08:05;28.27;;;12.98;;
72060;SDS011;59925;52.136;5.420;2022-12-13T12:13:55;26.38;;;12.48;;
72060;SDS011;59925;52.136;5.420;2022-12-13T12:16:34;28.65;;;12.25;;
72060;SDS011;59925;52.136;5.420;2022-12-13T12:19:12;27.30;;;12.33;;
72060;SDS011;59925;52.136;5.420;2022-12-13T12:21:51;25.25;;;12.30;;
72060;SDS011;59925;52.136;5.420;2022-12-13T12:27:34;28.17;;;12.25;;
72060;SDS011;59925;52.136;5.420;2022-12-13T12:46:55;26.67;;;12.37;;
72060;SDS011;59925;52.136;5.420;2022-12-13T13:03:34;28.20;;;14.73;;
72060;SDS011;59925;52.136;5.420;2022-12-13T13:06:05;30.30;;;12.90;;
72060;SDS011;59925;52.136;5.420;2022-12-13T13:11:20;27.85;;;12.15;;
72060;SDS011;59925;52.136;5.420;2022-12-13T13:13:59;24.33;;;12.23;;
72060;SDS011;59925;52.136;5.420;2022-12-13T13:16:40;31.00;;;13.40;;
72060;SDS011;59925;52.136;5.420;2022-12-13T13:26:38;27.13;;;13.20;;
72060;SDS011;59925;52.136;5.420;2022-12-13T13:29:31;127.40;;;22.75;;
72060;SDS011;59925;52.136;5.420;2022-12-13T13:34:37;47.97;;;15.52;;
72060;SDS011;59925;52.136;5.420;2022-12-13T13:42:18;26.90;;;13.05;;
72060;SDS011;59925;52.136;5.420;2022-12-13T13:50:02;24.00;;;12.48;;
72060;SDS011;59925;52.136;5.420;2022-12-13T13:52:36;27.60;;;13.07;;
72060;SDS011;59925;52.136;5.420;2022-12-13T14:12:12;27.50;;;11.57;;
72060;SDS011;59925;52.136;5.420;2022-12-13T14:17:51;25.35;;;11.60;;
72060;SDS011;59925;52.136;5.420;2022-12-13T14:28:49;28.60;;;11.48;;
72060;SDS011;59925;52.136;5.420;2022-12-13T14:31:17;29.55;;;11.40;;
72060;SDS011;59925;52.136;5.420;2022-12-13T14:33:47;23.53;;;10.73;;
72060;SDS011;59925;52.136;5.420;2022-12-13T14:36:17;26.90;;;12.23;;
72060;SDS011;59925;52.136;5.420;2022-12-13T14:38:59;31.27;;;13.30;;
72060;SDS011;59925;52.136;5.420;2022-12-13T14:41:51;27.10;;;11.30;;
72060;SDS011;59925;52.136;5.420;2022-12-13T14:44:26;29.45;;;12.88;;
72060;SDS011;59925;52.136;5.420;2022-12-13T14:46:55;28.90;;;12.73;;
72060;SDS011;59925;52.136;5.420;2022-12-13T14:49:24;32.67;;;13.60;;
72060;SDS011;59925;52.136;5.420;2022-12-13T14:51:54;33.47;;;12.85;;
72060;SDS011;59925;52.136;5.420;2022-12-13T14:54:28;25.92;;;11.52;;
72060;SDS011;59925;52.136;5.420;2022-12-13T14:57:24;29.88;;;12.93;;
72060;SDS011;59925;52.136;5.420;2022-12-13T14:59:54;27.73;;;12.87;;
72060;SDS011;59925;52.136;5.420;2022-12-13T15:02:24;23.83;;;11.65;;
72060;SDS011;59925;52.136;5.420;2022-12-13T15:04:57;26.45;;;12.52;;
72060;SDS011;59925;52.136;5.420;2022-12-13T15:07:30;27.92;;;13.02;;
72060;SDS011;59925;52.136;5.420;2022-12-13T15:10:02;26.85;;;11.77;;
72060;SDS011;59925;52.136;5.420;2022-12-13T15:12:42;22.67;;;11.93;;
72060;SDS011;59925;52.136;5.420;2022-12-13T15:15:17;30.55;;;14.30;;
72060;SDS011;59925;52.136;5.420;2022-12-13T15:17:48;29.77;;;13.70;;
72060;SDS011;59925;52.136;5.420;2022-12-13T15:20:22;28.48;;;13.50;;
72060;SDS011;59925;52.136;5.420;2022-12-13T15:22:55;26.70;;;12.75;;
72060;SDS011;59925;52.136;5.420;2022-12-13T15:25:26;27.83;;;11.30;;
72060;SDS011;59925;52.136;5.420;2022-12-13T15:27:54;29.45;;;14.10;;
72060;SDS011;59925;52.136;5.420;2022-12-13T15:30:21;30.08;;;12.57;;
72060;SDS011;59925;52.136;5.420;2022-12-13T15:35:41;27.23;;;12.15;;
72060;SDS011;59925;52.136;5.420;2022-12-13T15:38:13;32.03;;;12.37;;
72060;SDS011;59925;52.136;5.420;2022-12-13T15:40:54;25.15;;;12.15;;
72060;SDS011;59925;52.136;5.420;2022-12-13T15:43:22;23.42;;;10.88;;
72060;SDS011;59925;52.136;5.420;2022-12-13T15:45:56;24.67;;;11.75;;
72060;SDS011;59925;52.136;5.420;2022-12-13T15:51:14;25.93;;;11.37;;
72060;SDS011;59925;52.136;5.420;2022-12-13T15:56:38;26.85;;;11.23;;
72060;SDS011;59925;52.136;5.420;2022-12-13T15:59:25;24.48;;;10.30;;
72060;SDS011;59925;52.136;5.420;2022-12-13T16:01:53;24.00;;;11.35;;
72060;SDS011;59925;52.136;5.420;2022-12-13T16:04:24;25.13;;;10.67;;
72060;SDS011;59925;52.136;5.420;2022-12-13T16:06:53;28.05;;;12.05;;
72060;SDS011;59925;52.136;5.420;2022-12-13T16:09:21;29.70;;;11.93;;
72060;SDS011;59925;52.136;5.420;2022-12-13T16:11:55;27.42;;;12.25;;
72060;SDS011;59925;52.136;5.420;2022-12-13T16:14:38;27.13;;;12.20;;
72060;SDS011;59925;52.136;5.420;2022-12-13T16:17:24;26.03;;;11.80;;
72060;SDS011;59925;52.136;5.420;2022-12-13T16:19:55;24.98;;;11.13;;
72060;SDS011;59925;52.136;5.420;2022-12-13T16:22:34;25.10;;;10.68;;
72060;SDS011;59925;52.136;5.420;2022-12-13T16:25:01;23.63;;;11.00;;
72060;SDS011;59925;52.136;5.420;2022-12-13T16:27:27;24.83;;;11.30;;
72060;SDS011;59925;52.136;5.420;2022-12-13T16:29:54;28.43;;;12.57;;
72060;SDS011;59925;52.136;5.420;2022-12-13T16:32:20;23.65;;;10.90;;
72060;SDS011;59925;52.136;5.420;2022-12-13T16:34:47;22.40;;;11.02;;
72060;SDS011;59925;52.136;5.420;2022-12-13T16:37:13;30.35;;;11.57;;
72060;SDS011;59925;52.136;5.420;2022-12-13T16:39:52;26.48;;;10.85;;
72060;SDS011;59925;52.136;5.420;2022-12-13T16:42:19;22.53;;;10.60;;
72060;SDS011;59925;52.136;5.420;2022-12-13T16:44:45;24.60;;;11.15;;
72060;SDS011;59925;52.136;5.420;2022-12-13T16:47:13;26.10;;;11.98;;
72060;SDS011;59925;52.136;5.420;2022-12-13T16:49:52;24.85;;;10.07;;
72060;SDS011;59925;52.136;5.420;2022-12-13T16:52:19;26.08;;;11.45;;
72060;SDS011;59925;52.136;5.420;2022-12-13T16:54:47;24.40;;;12.33;;
72060;SDS011;59925;52.136;5.420;2022-12-13T16:57:13;25.30;;;11.32;;
72060;SDS011;59925;52.136;5.420;2022-12-13T16:59:39;27.67;;;12.23;;
72060;SDS011;59925;52.136;5.420;2022-12-13T17:02:15;27.80;;;12.30;;
72060;SDS011;59925;52.136;5.420;2022-12-13T17:04:43;25.10;;;11.05;;
72060;SDS011;59925;52.136;5.420;2022-12-13T17:07:09;27.07;;;11.77;;
72060;SDS011;59925;52.136;5.420;2022-12-13T17:09:35;25.50;;;11.82;;
72060;SDS011;59925;52.136;5.420;2022-12-13T17:12:02;26.88;;;12.43;;
72060;SDS011;59925;52.136;5.420;2022-12-13T17:14:28;28.65;;;11.68;;
72060;SDS011;59925;52.136;5.420;2022-12-13T17:16:55;25.50;;;11.30;;
72060;SDS011;59925;52.136;5.420;2022-12-13T17:19:21;25.93;;;12.07;;
72060;SDS011;59925;52.136;5.420;2022-12-13T17:21:48;25.77;;;12.05;;
72060;SDS011;59925;52.136;5.420;2022-12-13T17:24:14;30.08;;;12.20;;
72060;SDS011;59925;52.136;5.420;2022-12-13T17:26:41;23.13;;;11.63;;
72060;SDS011;59925;52.136;5.420;2022-12-13T17:29:20;29.70;;;12.80;;
72060;SDS011;59925;52.136;5.420;2022-12-13T17:31:46;29.87;;;12.87;;